sensor_id;sensor_type;location;lat;lon;timestamp;P1;durP1;ratioP1;P2;durP2;ratioP2
37877;SDS011;23715;53.652;8.516;2023-02-15T00:03:59;45.88;;;40.65;;
37877;SDS011;23715;53.652;8.516;2023-02-15T00:08:59;44.10;;;40.48;;
37877;SDS011;23715;53.652;8.516;2023-02-15T00:14:01;47.30;;;43.00;;
37877;SDS011;23715;53.652;8.516;2023-02-15T00:19:01;50.40;;;46.02;;
37877;SDS011;23715;53.652;8.516;2023-02-15T00:24:03;52.40;;;48.00;;
37877;SDS011;23715;53.652;8.516;2023-02-15T00:29:04;55.53;;;50.73;;
37877;SDS011;23715;53.652;8.516;2023-02-15T00:34:06;56.25;;;51.40;;
37877;SDS011;23715;53.652;8.516;2023-02-15T00:39:08;50.78;;;46.70;;
37877;SDS011;23715;53.652;8.516;2023-02-15T00:49:09;50.40;;;46.25;;
37877;SDS011;23715;53.652;8.516;2023-02-15T00:59:09;50.50;;;46.05;;
37877;SDS011;23715;53.652;8.516;2023-02-15T01:04:09;51.18;;;46.37;;
37877;SDS011;23715;53.652;8.516;2023-02-15T01:09:09;56.73;;;51.83;;
37877;SDS011;23715;53.652;8.516;2023-02-15T01:14:11;53.38;;;48.78;;
37877;SDS011;23715;53.652;8.516;2023-02-15T01:19:13;55.15;;;50.67;;
37877;SDS011;23715;53.652;8.516;2023-02-15T01:24:13;58.83;;;54.03;;
37877;SDS011;23715;53.652;8.516;2023-02-15T01:34:13;52.98;;;48.35;;
37877;SDS011;23715;53.652;8.516;2023-02-15T01:39:13;53.17;;;49.08;;
37877;SDS011;23715;53.652;8.516;2023-02-15T01:49:46;51.75;;;47.65;;
37877;SDS011;23715;53.652;8.516;2023-02-15T01:54:49;51.00;;;46.80;;
37877;SDS011;23715;53.652;8.516;2023-02-15T01:59:51;51.85;;;47.83;;
37877;SDS011;23715;53.652;8.516;2023-02-15T02:04:58;50.23;;;45.70;;
37877;SDS011;23715;53.652;8.516;2023-02-15T02:10:02;52.75;;;48.70;;
37877;SDS011;23715;53.652;8.516;2023-02-15T02:15:04;52.70;;;47.45;;
37877;SDS011;23715;53.652;8.516;2023-02-15T02:25:53;58.65;;;48.63;;
37877;SDS011;23715;53.652;8.516;2023-02-15T02:36:20;50.48;;;46.92;;
37877;SDS011;23715;53.652;8.516;2023-02-15T02:41:29;50.30;;;46.77;;
37877;SDS011;23715;53.652;8.516;2023-02-15T02:46:48;49.75;;;45.33;;
37877;SDS011;23715;53.652;8.516;2023-02-15T02:51:47;51.95;;;48.35;;
37877;SDS011;23715;53.652;8.516;2023-02-15T02:56:49;48.40;;;44.50;;
37877;SDS011;23715;53.652;8.516;2023-02-15T03:01:54;51.65;;;47.85;;
37877;SDS011;23715;53.652;8.516;2023-02-15T03:06:59;50.23;;;45.65;;
37877;SDS011;23715;53.652;8.516;2023-02-15T03:12:01;49.93;;;46.20;;
37877;SDS011;23715;53.652;8.516;2023-02-15T03:17:04;48.98;;;44.05;;
37877;SDS011;23715;53.652;8.516;2023-02-15T03:22:12;49.00;;;45.33;;
37877;SDS011;23715;53.652;8.516;2023-02-15T03:27:20;51.90;;;48.13;;
37877;SDS011;23715;53.652;8.516;2023-02-15T03:32:24;49.70;;;45.73;;
37877;SDS011;23715;53.652;8.516;2023-02-15T03:37:32;49.98;;;44.83;;
37877;SDS011;23715;53.652;8.516;2023-02-15T03:42:36;45.50;;;41.48;;
37877;SDS011;23715;53.652;8.516;2023-02-15T03:47:44;49.15;;;45.10;;
37877;SDS011;23715;53.652;8.516;2023-02-15T03:52:41;52.33;;;45.28;;
37877;SDS011;23715;53.652;8.516;2023-02-15T03:57:42;57.48;;;43.15;;
37877;SDS011;23715;53.652;8.516;2023-02-15T04:08:10;46.92;;;42.38;;
37877;SDS011;23715;53.652;8.516;2023-02-15T04:13:11;47.48;;;42.90;;
37877;SDS011;23715;53.652;8.516;2023-02-15T04:18:11;44.23;;;41.10;;
37877;SDS011;23715;53.652;8.516;2023-02-15T04:28:30;43.10;;;39.53;;
37877;SDS011;23715;53.652;8.516;2023-02-15T04:33:30;47.40;;;43.58;;
37877;SDS011;23715;53.652;8.516;2023-02-15T04:38:30;47.98;;;43.73;;
37877;SDS011;23715;53.652;8.516;2023-02-15T04:43:31;43.85;;;40.38;;
37877;SDS011;23715;53.652;8.516;2023-02-15T04:48:31;47.48;;;43.28;;
37877;SDS011;23715;53.652;8.516;2023-02-15T04:53:31;46.50;;;41.40;;
37877;SDS011;23715;53.652;8.516;2023-02-15T04:58:32;45.43;;;41.80;;
37877;SDS011;23715;53.652;8.516;2023-02-15T05:03:33;45.23;;;41.63;;
37877;SDS011;23715;53.652;8.516;2023-02-15T05:08:34;46.02;;;41.83;;
37877;SDS011;23715;53.652;8.516;2023-02-15T05:13:34;49.33;;;45.20;;
37877;SDS011;23715;53.652;8.516;2023-02-15T05:18:34;46.23;;;42.53;;
37877;SDS011;23715;53.652;8.516;2023-02-15T05:23:35;47.17;;;43.17;;
37877;SDS011;23715;53.652;8.516;2023-02-15T05:28:36;46.58;;;42.93;;
37877;SDS011;23715;53.652;8.516;2023-02-15T06:01:33;49.55;;;45.85;;
37877;SDS011;23715;53.652;8.516;2023-02-15T06:11:52;51.37;;;47.45;;
37877;SDS011;23715;53.652;8.516;2023-02-15T06:16:52;50.80;;;46.90;;
37877;SDS011;23715;53.652;8.516;2023-02-15T06:21:52;52.53;;;48.52;;
37877;SDS011;23715;53.652;8.516;2023-02-15T06:26:53;53.60;;;49.03;;
37877;SDS011;23715;53.652;8.516;2023-02-15T06:31:53;58.68;;;53.05;;
37877;SDS011;23715;53.652;8.516;2023-02-15T06:36:53;58.13;;;52.88;;
37877;SDS011;23715;53.652;8.516;2023-02-15T06:41:54;57.75;;;52.17;;
37877;SDS011;23715;53.652;8.516;2023-02-15T06:46:54;59.03;;;53.83;;
37877;SDS011;23715;53.652;8.516;2023-02-15T06:51:54;58.10;;;52.17;;
37877;SDS011;23715;53.652;8.516;2023-02-15T06:56:54;61.15;;;55.33;;
37877;SDS011;23715;53.652;8.516;2023-02-15T07:01:55;61.48;;;55.67;;
37877;SDS011;23715;53.652;8.516;2023-02-15T07:06:55;64.32;;;57.38;;
37877;SDS011;23715;53.652;8.516;2023-02-15T07:11:55;63.68;;;56.95;;
37877;SDS011;23715;53.652;8.516;2023-02-15T07:17:14;61.90;;;55.67;;
37877;SDS011;23715;53.652;8.516;2023-02-15T07:22:14;62.08;;;56.25;;
37877;SDS011;23715;53.652;8.516;2023-02-15T07:27:15;62.25;;;56.18;;
37877;SDS011;23715;53.652;8.516;2023-02-15T07:32:15;66.20;;;57.00;;
37877;SDS011;23715;53.652;8.516;2023-02-15T07:37:16;69.00;;;60.40;;
37877;SDS011;23715;53.652;8.516;2023-02-15T07:42:16;67.92;;;61.08;;
37877;SDS011;23715;53.652;8.516;2023-02-15T07:47:18;65.22;;;58.33;;
37877;SDS011;23715;53.652;8.516;2023-02-15T07:52:18;67.32;;;58.20;;
37877;SDS011;23715;53.652;8.516;2023-02-15T07:57:18;67.45;;;60.23;;
37877;SDS011;23715;53.652;8.516;2023-02-15T08:02:18;61.55;;;55.33;;
37877;SDS011;23715;53.652;8.516;2023-02-15T08:07:19;63.58;;;56.77;;
37877;SDS011;23715;53.652;8.516;2023-02-15T08:12:19;69.17;;;59.98;;
37877;SDS011;23715;53.652;8.516;2023-02-15T08:17:19;77.75;;;62.50;;
37877;SDS011;23715;53.652;8.516;2023-02-15T08:22:22;78.25;;;61.28;;
37877;SDS011;23715;53.652;8.516;2023-02-15T08:27:22;71.55;;;61.02;;
37877;SDS011;23715;53.652;8.516;2023-02-15T08:32:25;80.38;;;66.35;;
37877;SDS011;23715;53.652;8.516;2023-02-15T08:37:25;84.07;;;65.52;;
37877;SDS011;23715;53.652;8.516;2023-02-15T08:42:25;77.30;;;62.75;;
37877;SDS011;23715;53.652;8.516;2023-02-15T08:52:25;73.93;;;61.83;;
37877;SDS011;23715;53.652;8.516;2023-02-15T08:57:25;73.72;;;64.82;;
37877;SDS011;23715;53.652;8.516;2023-02-15T09:02:27;87.85;;;74.17;;
37877;SDS011;23715;53.652;8.516;2023-02-15T09:07:28;83.58;;;74.97;;
37877;SDS011;23715;53.652;8.516;2023-02-15T09:12:28;83.15;;;74.40;;
37877;SDS011;23715;53.652;8.516;2023-02-15T09:17:28;80.40;;;71.90;;
37877;SDS011;23715;53.652;8.516;2023-02-15T09:22:28;85.30;;;76.37;;
37877;SDS011;23715;53.652;8.516;2023-02-15T09:27:29;88.97;;;79.32;;
37877;SDS011;23715;53.652;8.516;2023-02-15T09:37:32;87.15;;;78.45;;
